createdAt,value
2022-11-13T00:00:31.471Z,18.13
2022-11-13T00:03:16.991Z,16.27
2022-11-13T00:06:03.445Z,18.15
2022-11-13T00:08:52.882Z,17.20
2022-11-13T00:11:38.365Z,15.35
2022-11-13T00:14:23.529Z,17.50
2022-11-13T00:17:08.852Z,14.87
2022-11-13T00:19:54.209Z,13.60
2022-11-13T00:22:39.690Z,14.15
2022-11-13T00:25:25.044Z,14.17
2022-11-13T00:28:10.380Z,13.70
2022-11-13T00:30:59.668Z,17.27
2022-11-13T00:34:09.128Z,14.25
2022-11-13T00:36:50.532Z,17.08
2022-11-13T00:39:35.842Z,15.87
2022-11-13T00:42:21.441Z,13.63
2022-11-13T00:45:09.059Z,14.83
2022-11-13T00:47:54.380Z,15.80
2022-11-13T00:50:39.777Z,13.55
2022-11-13T00:53:24.988Z,14.67
2022-11-13T00:56:10.389Z,16.38
2022-11-13T00:58:55.948Z,13.65
2022-11-13T01:01:41.466Z,13.82
2022-11-13T01:04:28.821Z,16.15
2022-11-13T01:07:14.447Z,14.98
2022-11-13T01:10:01.091Z,17.08
2022-11-13T01:12:46.551Z,13.40
2022-11-13T01:15:31.989Z,15.25
2022-11-13T01:18:17.324Z,13.83
2022-11-13T01:21:11.656Z,12.37
2022-11-13T01:23:57.188Z,13.35
2022-11-13T01:26:42.649Z,12.15
2022-11-13T01:29:27.948Z,12.55
2022-11-13T01:32:13.415Z,13.45
2022-11-13T01:34:59.108Z,14.18
2022-11-13T01:37:44.720Z,15.10
2022-11-13T01:40:29.981Z,13.43
2022-11-13T01:43:32.159Z,12.40
2022-11-13T01:46:20.594Z,12.30
2022-11-13T01:49:11.521Z,12.32
2022-11-13T01:52:07.131Z,12.57
2022-11-13T01:55:17.534Z,12.40
2022-11-13T01:58:04.205Z,14.30
2022-11-13T02:00:49.553Z,13.20
2022-11-13T02:03:34.845Z,12.02
2022-11-13T02:06:21.777Z,12.43
2022-11-13T02:09:08.171Z,12.25
2022-11-13T02:11:54.318Z,11.18
2022-11-13T02:14:43.697Z,10.73
2022-11-13T02:17:40.087Z,14.75
2022-11-13T02:20:47.232Z,11.63
2022-11-13T02:23:53.939Z,11.10
2022-11-13T02:26:41.267Z,12.50
2022-11-13T02:29:26.675Z,12.55
2022-11-13T02:32:11.880Z,13.52
2022-11-13T02:34:57.228Z,12.00
2022-11-13T02:37:42.829Z,11.15
2022-11-13T02:40:29.288Z,11.00
2022-11-13T02:43:14.706Z,11.32
2022-11-13T02:45:59.889Z,12.10
2022-11-13T02:48:45.306Z,12.97
2022-11-13T02:51:30.590Z,14.93
2022-11-13T02:54:17.246Z,14.13
2022-11-13T02:57:02.708Z,12.95
2022-11-13T02:59:48.009Z,11.85
2022-11-13T03:02:33.396Z,15.20
2022-11-13T03:05:19.204Z,16.30
2022-11-13T03:08:06.725Z,15.13
2022-11-13T03:10:53.557Z,12.07
2022-11-13T03:13:39.327Z,13.82
2022-11-13T03:16:24.726Z,16.05
2022-11-13T03:19:10.232Z,13.88
2022-11-13T03:21:55.482Z,13.02
2022-11-13T03:24:40.885Z,13.45
2022-11-13T03:27:26.543Z,11.70
2022-11-13T03:30:12.240Z,12.50
2022-11-13T03:32:58.198Z,14.27
2022-11-13T03:35:46.979Z,16.73
2022-11-13T03:38:33.499Z,11.27
2022-11-13T03:44:04.738Z,11.90
2022-11-13T03:46:50.129Z,11.40
2022-11-13T03:49:35.421Z,14.80
2022-11-13T03:52:20.946Z,11.10
2022-11-13T03:55:06.496Z,11.53
2022-11-13T03:57:52.107Z,10.65
2022-11-13T04:00:43.461Z,11.18
2022-11-13T04:03:29.037Z,11.60
2022-11-13T04:06:14.919Z,11.40
2022-11-13T04:09:00.348Z,13.35
2022-11-13T04:11:45.696Z,10.03
2022-11-13T04:14:30.975Z,11.43
2022-11-13T04:17:16.530Z,11.25
2022-11-13T04:20:01.919Z,9.43
2022-11-13T04:22:47.452Z,13.77
2022-11-13T04:25:33.394Z,10.65
2022-11-13T04:28:18.551Z,11.32
2022-11-13T04:31:04.195Z,12.25
2022-11-13T04:33:49.792Z,10.65
2022-11-13T04:36:35.216Z,9.73
2022-11-13T04:39:20.621Z,9.88
2022-11-13T04:42:24.650Z,9.18
2022-11-13T04:45:10.619Z,9.45
2022-11-13T04:47:56.459Z,9.75
2022-11-13T04:50:41.986Z,8.23
2022-11-13T04:53:27.383Z,9.23
2022-11-13T04:56:12.697Z,8.48
2022-11-13T04:58:58.117Z,7.37
2022-11-13T05:01:43.497Z,8.77
2022-11-13T05:04:28.700Z,10.57
2022-11-13T05:07:14.250Z,13.17
2022-11-13T05:10:00.000Z,8.73
2022-11-13T05:12:45.172Z,8.90
2022-11-13T05:15:30.554Z,11.87
2022-11-13T05:18:16.020Z,8.57
2022-11-13T05:21:02.054Z,9.18
2022-11-13T05:23:47.313Z,10.13
2022-11-13T05:26:33.014Z,9.20
2022-11-13T05:29:18.716Z,9.20
2022-11-13T05:32:04.158Z,10.13
2022-11-13T05:34:49.662Z,8.35
2022-11-13T05:37:35.294Z,8.35
2022-11-13T05:40:20.888Z,9.13
2022-11-13T05:43:06.228Z,9.75
2022-11-13T05:45:51.832Z,8.77
2022-11-13T05:48:37.537Z,10.13
2022-11-13T05:51:28.559Z,12.18
2022-11-13T05:54:13.835Z,9.55
2022-11-13T05:56:59.310Z,9.20
2022-11-13T05:59:44.523Z,13.23
2022-11-13T06:02:29.832Z,10.10
2022-11-13T06:05:15.216Z,10.57
2022-11-13T06:08:00.587Z,9.23
2022-11-13T06:10:46.403Z,9.48
2022-11-13T06:13:32.376Z,8.43
2022-11-13T06:16:24.476Z,8.63
2022-11-13T06:19:11.051Z,8.75
2022-11-13T06:21:56.750Z,9.70
2022-11-13T06:24:42.019Z,8.57
2022-11-13T06:27:28.026Z,6.93
2022-11-13T06:30:13.858Z,7.50
2022-11-13T06:32:59.301Z,8.82
2022-11-13T06:35:44.625Z,7.60
2022-11-13T06:38:34.274Z,8.90
2022-11-13T06:41:23.090Z,8.32
2022-11-13T06:44:08.465Z,8.80
2022-11-13T06:46:53.794Z,8.00
2022-11-13T06:49:39.110Z,9.13
2022-11-13T06:52:24.573Z,9.30
2022-11-13T06:55:09.893Z,6.90
2022-11-13T06:57:55.241Z,8.77
2022-11-13T07:00:43.381Z,6.32
2022-11-13T07:03:28.934Z,7.50
2022-11-13T07:06:18.411Z,8.07
2022-11-13T07:09:03.954Z,7.25
2022-11-13T07:11:49.232Z,7.63
2022-11-13T07:14:34.674Z,12.55
2022-11-13T07:17:19.943Z,8.03
2022-11-13T07:20:05.760Z,9.65
2022-11-13T07:22:54.653Z,10.35
2022-11-13T07:25:39.892Z,7.50
2022-11-13T07:28:25.347Z,8.30
2022-11-13T07:31:13.290Z,8.48
2022-11-13T07:33:58.785Z,8.88
2022-11-13T07:36:44.283Z,10.07
2022-11-13T07:39:29.641Z,7.82
2022-11-13T07:42:15.126Z,9.00
2022-11-13T07:45:00.925Z,9.70
2022-11-13T07:47:46.572Z,8.80
2022-11-13T07:50:34.214Z,9.40
2022-11-13T07:53:20.886Z,9.02
2022-11-13T07:56:06.787Z,8.35
2022-11-13T07:58:52.191Z,11.00
2022-11-13T08:01:38.408Z,10.70
2022-11-13T08:04:24.125Z,10.88
2022-11-13T08:07:12.633Z,11.10
2022-11-13T08:09:58.556Z,10.32
2022-11-13T08:12:44.730Z,9.60
2022-11-13T08:15:31.708Z,10.20
2022-11-13T08:18:17.190Z,9.77
2022-11-13T08:21:03.979Z,9.65
2022-11-13T08:23:50.316Z,11.10
2022-11-13T08:26:38.766Z,8.38
2022-11-13T08:29:24.475Z,10.18
2022-11-13T08:32:10.212Z,10.05
2022-11-13T08:34:55.506Z,12.98
2022-11-13T08:37:40.889Z,12.23
2022-11-13T08:40:26.033Z,13.03
2022-11-13T08:43:11.545Z,12.73
2022-11-13T08:45:57.179Z,12.45
2022-11-13T08:48:42.886Z,9.35
2022-11-13T08:51:28.898Z,12.70
2022-11-13T08:54:14.169Z,8.88
2022-11-13T08:57:04.715Z,9.93
2022-11-13T08:59:51.301Z,10.10
2022-11-13T09:02:36.836Z,10.65
2022-11-13T09:05:23.020Z,8.63
2022-11-13T09:08:08.381Z,11.20
2022-11-13T09:10:53.688Z,10.38
2022-11-13T09:13:44.042Z,11.67
2022-11-13T09:16:31.453Z,10.63
2022-11-13T09:19:16.898Z,9.50
2022-11-13T09:22:02.198Z,9.10
2022-11-13T09:24:48.170Z,11.45
2022-11-13T09:27:33.458Z,9.53
2022-11-13T09:30:18.874Z,13.20
2022-11-13T09:33:04.719Z,9.77
2022-11-13T09:35:49.892Z,10.23
2022-11-13T09:38:35.164Z,8.63
2022-11-13T09:41:28.193Z,9.20
2022-11-13T09:44:24.418Z,9.38
2022-11-13T09:47:18.079Z,10.57
2022-11-13T09:50:20.467Z,11.60
2022-11-13T09:53:05.961Z,10.98
2022-11-13T09:56:19.161Z,11.90
2022-11-13T09:59:37.524Z,11.93
2022-11-13T10:02:44.536Z,8.82
2022-11-13T10:05:51.770Z,9.20
2022-11-13T10:08:57.027Z,9.50
2022-11-13T10:11:57.750Z,9.10
2022-11-13T10:14:51.324Z,8.85
2022-11-13T10:17:44.088Z,9.73
2022-11-13T10:20:46.081Z,7.70
2022-11-13T10:23:38.774Z,9.85
2022-11-13T10:26:27.858Z,8.25
2022-11-13T10:29:15.637Z,8.30
2022-11-13T10:32:23.341Z,6.70
2022-11-13T10:35:19.537Z,8.45
2022-11-13T10:38:09.391Z,6.63
2022-11-13T10:41:06.906Z,8.32
2022-11-13T10:43:53.979Z,8.13
2022-11-13T10:46:39.371Z,9.48
2022-11-13T10:49:30.261Z,8.10
2022-11-13T10:52:28.130Z,8.40
2022-11-13T10:55:22.104Z,9.20
2022-11-13T10:58:16.633Z,8.63
2022-11-13T11:01:02.343Z,7.47
2022-11-13T11:03:51.477Z,8.98
2022-11-13T11:07:17.930Z,8.85
2022-11-13T11:09:49.033Z,6.82
2022-11-13T11:12:34.356Z,9.07
2022-11-13T11:15:38.772Z,7.78
2022-11-13T11:18:39.025Z,7.50
2022-11-13T11:21:37.305Z,6.32
2022-11-13T11:24:33.564Z,8.75
2022-11-13T11:27:25.971Z,7.40
2022-11-13T11:30:20.569Z,7.15
2022-11-13T11:33:30.678Z,9.48
2022-11-13T11:36:33.433Z,9.75
2022-11-13T11:39:41.683Z,7.47
2022-11-13T11:42:38.827Z,7.40
2022-11-13T11:45:30.107Z,8.85
2022-11-13T11:48:31.247Z,5.55
2022-11-13T11:51:25.992Z,8.82
2022-11-13T11:54:38.005Z,9.05
2022-11-13T11:58:03.539Z,9.10
2022-11-13T12:01:01.059Z,9.88
2022-11-13T12:04:05.079Z,8.50
2022-11-13T12:07:18.070Z,9.05
2022-11-13T12:10:26.696Z,9.43
2022-11-13T12:13:23.582Z,10.75
2022-11-13T12:16:35.803Z,41.15
2022-11-13T12:19:54.879Z,7.97
2022-11-13T12:22:51.571Z,8.73
2022-11-13T12:25:45.849Z,6.97
2022-11-13T12:28:50.320Z,6.75
2022-11-13T12:31:53.608Z,7.30
2022-11-13T12:34:47.313Z,8.90
2022-11-13T12:37:45.404Z,7.55
2022-11-13T12:40:44.684Z,7.85
2022-11-13T12:43:33.275Z,10.82
2022-11-13T12:46:19.314Z,8.10
2022-11-13T12:49:24.955Z,9.95
2022-11-13T12:52:16.369Z,10.40
2022-11-13T12:55:24.670Z,9.60
2022-11-13T12:58:19.557Z,9.57
2022-11-13T13:01:10.809Z,7.78
2022-11-13T13:04:29.423Z,10.93
2022-11-13T13:07:33.174Z,9.43
2022-11-13T13:10:30.397Z,8.20
2022-11-13T13:13:35.640Z,12.45
2022-11-13T13:16:28.014Z,9.32
2022-11-13T13:19:33.201Z,8.57
2022-11-13T13:22:28.576Z,8.38
2022-11-13T13:25:25.589Z,10.18
2022-11-13T13:28:13.852Z,8.15
2022-11-13T13:31:19.001Z,8.68
2022-11-13T13:34:13.661Z,12.23
2022-11-13T13:37:51.031Z,10.38
2022-11-13T13:40:58.596Z,9.40
2022-11-13T13:44:02.919Z,10.48
2022-11-13T13:46:49.115Z,11.15
2022-11-13T13:52:33.132Z,10.52
2022-11-13T13:55:38.789Z,10.07
2022-11-13T13:58:29.040Z,10.10
2022-11-13T14:01:26.758Z,7.45
2022-11-13T14:04:19.954Z,14.05
2022-11-13T14:07:18.289Z,11.07
2022-11-13T14:10:20.731Z,8.82
2022-11-13T14:13:11.661Z,9.18
2022-11-13T14:16:05.145Z,10.13
2022-11-13T14:18:50.435Z,10.95
2022-11-13T14:21:36.236Z,10.73
2022-11-13T14:24:26.174Z,10.50
2022-11-13T14:27:17.896Z,16.70
2022-11-13T14:30:04.232Z,11.55
2022-11-13T14:32:50.549Z,11.20
2022-11-13T14:35:38.712Z,11.60
2022-11-13T14:38:28.514Z,11.75
2022-11-13T14:41:47.453Z,11.70
2022-11-13T14:44:34.965Z,13.20
2022-11-13T14:47:30.111Z,10.45
2022-11-13T14:50:36.004Z,10.13
2022-11-13T14:53:33.249Z,14.65
2022-11-13T14:59:08.117Z,10.15
2022-11-13T15:01:59.612Z,12.90
2022-11-13T15:04:45.195Z,10.82
2022-11-13T15:07:34.082Z,11.75
2022-11-13T15:10:21.890Z,11.80
2022-11-13T15:13:16.480Z,11.75
2022-11-13T15:16:02.051Z,12.75
2022-11-13T15:18:51.928Z,10.35
2022-11-13T15:21:37.496Z,12.98
2022-11-13T15:24:23.488Z,11.18
2022-11-13T15:27:18.558Z,11.32
2022-11-13T15:30:04.468Z,12.07
2022-11-13T15:32:53.863Z,10.57
2022-11-13T15:35:41.615Z,9.88
2022-11-13T15:38:26.952Z,13.05
2022-11-13T15:41:15.155Z,11.15
2022-11-13T15:44:02.222Z,10.93
2022-11-13T15:46:47.960Z,11.07
2022-11-13T15:49:33.438Z,12.90
2022-11-13T15:52:20.148Z,14.25
2022-11-13T15:55:14.851Z,13.52
2022-11-13T15:58:02.741Z,11.27
2022-11-13T16:00:48.401Z,11.98
2022-11-13T16:03:39.496Z,10.82
2022-11-13T16:06:25.647Z,12.38
2022-11-13T16:09:14.245Z,11.80
2022-11-13T16:12:01.520Z,12.57
2022-11-13T16:14:46.862Z,11.90
2022-11-13T16:17:38.721Z,10.50
2022-11-13T16:20:24.554Z,11.60
2022-11-13T16:23:17.109Z,13.65
2022-11-13T16:26:04.582Z,12.88
2022-11-13T16:29:12.677Z,10.95
2022-11-13T16:31:58.063Z,14.07
2022-11-13T16:34:44.387Z,14.13
2022-11-13T16:40:24.475Z,12.18
2022-11-13T16:43:10.484Z,13.07
2022-11-13T16:46:00.278Z,14.40
2022-11-13T16:48:48.939Z,12.80
2022-11-13T16:51:34.221Z,13.82
2022-11-13T16:54:20.070Z,14.40
2022-11-13T16:57:05.622Z,11.73
2022-11-13T16:59:50.829Z,12.97
2022-11-13T17:02:36.445Z,18.10
2022-11-13T17:05:23.317Z,14.23
2022-11-13T17:08:12.620Z,14.77
2022-11-13T17:10:58.667Z,16.38
2022-11-13T17:13:54.662Z,16.50
2022-11-13T17:16:40.018Z,16.90
2022-11-13T17:19:25.694Z,14.75
2022-11-13T17:22:12.205Z,16.17
2022-11-13T17:24:57.861Z,16.50
2022-11-13T17:27:44.028Z,15.73
2022-11-13T17:30:29.610Z,17.13
2022-11-13T17:33:16.699Z,17.05
2022-11-13T17:36:02.575Z,17.52
2022-11-13T17:38:48.296Z,17.42
2022-11-13T17:41:35.009Z,18.27
2022-11-13T17:44:20.429Z,19.40
2022-11-13T17:47:06.145Z,20.08
2022-11-13T17:49:51.477Z,19.33
2022-11-13T17:52:37.126Z,22.90
2022-11-13T17:55:22.440Z,20.43
2022-11-13T17:58:07.708Z,23.70
2022-11-13T18:00:54.083Z,16.15
2022-11-13T18:03:39.909Z,20.52
2022-11-13T18:06:25.567Z,21.27
2022-11-13T18:09:11.371Z,20.52
2022-11-13T18:11:56.729Z,23.05
2022-11-13T18:14:42.269Z,17.05
2022-11-13T18:17:27.973Z,19.88
2022-11-13T18:20:13.369Z,16.80
2022-11-13T18:22:59.034Z,15.83
2022-11-13T18:25:44.381Z,18.27
2022-11-13T18:28:29.850Z,17.60
2022-11-13T18:31:17.780Z,17.57
2022-11-13T18:34:05.179Z,19.38
2022-11-13T18:36:51.067Z,18.88
2022-11-13T18:39:36.798Z,19.20
2022-11-13T18:42:22.141Z,18.15
2022-11-13T18:45:08.305Z,17.40
2022-11-13T18:47:53.600Z,20.27
2022-11-13T18:50:39.180Z,16.08
2022-11-13T18:53:24.625Z,18.45
2022-11-13T18:56:20.111Z,18.02
2022-11-13T18:59:06.266Z,19.92
2022-11-13T19:01:52.076Z,22.90
2022-11-13T19:04:37.785Z,21.77
2022-11-13T19:07:23.423Z,24.90
2022-11-13T19:10:08.990Z,20.45
2022-11-13T19:12:54.200Z,26.47
2022-11-13T19:15:39.843Z,19.63
2022-11-13T19:18:25.736Z,21.73
2022-11-13T19:21:14.059Z,21.60
2022-11-13T19:24:01.168Z,18.25
2022-11-13T19:26:46.513Z,17.35
2022-11-13T19:29:50.487Z,18.85
2022-11-13T19:32:35.858Z,20.83
2022-11-13T19:35:21.316Z,21.52
2022-11-13T19:38:06.838Z,23.48
2022-11-13T19:40:53.058Z,21.63
2022-11-13T19:43:41.110Z,23.13
2022-11-13T19:46:27.344Z,22.23
2022-11-13T19:51:58.331Z,19.80
2022-11-13T19:54:45.089Z,24.10
2022-11-13T19:57:30.467Z,20.75
2022-11-13T20:00:17.264Z,20.55
2022-11-13T20:03:07.433Z,19.95
2022-11-13T20:05:56.117Z,23.42
2022-11-13T20:08:42.073Z,24.42
2022-11-13T20:11:28.114Z,32.92
2022-11-13T20:17:00.460Z,28.45
2022-11-13T20:19:46.068Z,23.02
2022-11-13T20:22:31.492Z,21.30
2022-11-13T20:25:17.095Z,27.52
2022-11-13T20:28:03.243Z,22.77
2022-11-13T20:30:49.166Z,20.35
2022-11-13T20:33:36.016Z,24.25
2022-11-13T20:36:23.033Z,24.05
2022-11-13T20:39:09.676Z,22.73
2022-11-13T20:41:55.450Z,22.55
2022-11-13T20:44:41.017Z,28.20
2022-11-13T20:47:26.606Z,23.73
2022-11-13T20:50:12.426Z,23.13
2022-11-13T20:52:59.017Z,23.40
2022-11-13T20:55:45.636Z,25.05
2022-11-13T20:58:32.698Z,21.05
2022-11-13T21:01:25.534Z,23.98
2022-11-13T21:04:11.238Z,23.63
2022-11-13T21:06:57.126Z,26.77
2022-11-13T21:09:48.795Z,23.98
2022-11-13T21:12:36.222Z,25.35
2022-11-13T21:15:21.677Z,23.98
2022-11-13T21:18:07.046Z,25.20
2022-11-13T21:20:52.534Z,22.75
2022-11-13T21:23:37.978Z,24.70
2022-11-13T21:26:23.396Z,26.02
2022-11-13T21:29:08.640Z,27.40
2022-11-13T21:31:54.047Z,22.98
2022-11-13T21:34:39.687Z,30.20
2022-11-13T21:37:26.359Z,25.73
2022-11-13T21:40:12.733Z,26.85
2022-11-13T21:42:58.089Z,26.40
2022-11-13T21:45:43.368Z,28.70
2022-11-13T21:48:33.019Z,26.45
2022-11-13T21:51:18.912Z,24.67
2022-11-13T21:54:04.830Z,23.27
2022-11-13T21:56:50.356Z,24.80
2022-11-13T21:59:35.770Z,30.40
2022-11-13T22:02:21.382Z,25.05
2022-11-13T22:05:07.633Z,26.67
2022-11-13T22:07:53.058Z,26.38
2022-11-13T22:10:38.725Z,28.85
2022-11-13T22:13:24.076Z,28.52
2022-11-13T22:16:12.001Z,25.02
2022-11-13T22:18:59.952Z,28.13
2022-11-13T22:21:46.595Z,27.83
2022-11-13T22:24:32.203Z,27.02
2022-11-13T22:27:18.474Z,30.52
2022-11-13T22:32:49.826Z,29.02
2022-11-13T22:35:35.294Z,31.83
2022-11-13T22:38:20.557Z,26.93
2022-11-13T22:41:24.343Z,31.33
2022-11-13T22:44:13.249Z,25.77
2022-11-13T22:46:58.580Z,26.60
2022-11-13T22:49:44.933Z,34.60
2022-11-13T22:52:30.433Z,31.55
2022-11-13T22:55:15.965Z,27.00
2022-11-13T22:58:01.315Z,28.17
2022-11-13T23:00:46.544Z,29.80
2022-11-13T23:03:32.286Z,24.77
2022-11-13T23:09:06.360Z,24.58
2022-11-13T23:11:51.922Z,23.70
2022-11-13T23:14:37.089Z,25.27
2022-11-13T23:17:22.510Z,23.30
2022-11-13T23:20:08.763Z,27.98
2022-11-13T23:22:54.002Z,18.77
2022-11-13T23:25:40.005Z,24.83
2022-11-13T23:28:25.345Z,24.08
2022-11-13T23:31:11.115Z,30.17
2022-11-13T23:36:42.212Z,26.05
2022-11-13T23:39:27.458Z,23.67
2022-11-13T23:42:12.831Z,27.00
2022-11-13T23:44:58.303Z,27.15
2022-11-13T23:47:44.153Z,22.55
2022-11-13T23:50:30.036Z,22.92
2022-11-13T23:56:01.421Z,27.02
2022-11-13T23:58:47.178Z,26.45
